Time;durP1;ratioP1;P1;durP2;ratioP2;P2;SDS_P1;SDS_P2;PMS_P1;PMS_P2;Temp;Humidity;BMP_temperature;BMP_pressure;BME280_temperature;BME280_humidity;BME280_pressure;Samples;Min_cycle;Max_cycle;Signal;HPM_P1;HPM_P2
2022/05/10 00:00:15;;;;;;;7.60;3.20;;;;;;;;;;5014723;28;20820;-51
2022/05/10 00:02:42;;;;;;;7.77;2.60;;;;;;;;;;5014006;28;20385;-50
2022/05/10 00:05:08;;;;;;;5.95;2.97;;;;;;;;;;5013010;28;20696;-51
2022/05/10 00:07:36;;;;;;;7.25;2.75;;;;;;;;;;5012173;28;20450;-48
2022/05/10 00:10:02;;;;;;;5.82;3.22;;;;;;;;;;5012111;28;20778;-51
2022/05/10 00:12:28;;;;;;;8.20;3.17;;;;;;;;;;5011882;28;20879;-55
2022/05/10 00:14:54;;;;;;;9.83;3.20;;;;;;;;;;5011326;28;20389;-55
2022/05/10 00:17:25;;;;;;;7.80;3.20;;;;;;;;;;5011339;28;20385;-55
2022/05/10 00:19:52;;;;;;;7.63;3.70;;;;;;;;;;5014063;28;20879;-53
2022/05/10 00:22:18;;;;;;;6.70;3.03;;;;;;;;;;5015615;28;20407;-54
2022/05/10 00:24:44;;;;;;;10.05;3.33;;;;;;;;;;5014101;28;20396;-53
2022/05/10 00:27:10;;;;;;;9.32;3.28;;;;;;;;;;5015736;28;20452;-55
2022/05/10 00:29:36;;;;;;;8.52;3.28;;;;;;;;;;5015269;28;20714;-51
2022/05/10 00:32:02;;;;;;;8.15;3.25;;;;;;;;;;5015147;28;20688;-53
2022/05/10 00:34:29;;;;;;;6.45;3.28;;;;;;;;;;5014013;28;20417;-54
2022/05/10 00:36:55;;;;;;;6.60;2.85;;;;;;;;;;5015260;28;20694;-53
2022/05/10 00:39:21;;;;;;;8.15;3.05;;;;;;;;;;5013515;28;20381;-53
2022/05/10 00:41:54;;;;;;;6.72;3.10;;;;;;;;;;5015151;28;20420;-55
2022/05/10 00:44:43;;;;;;;9.55;3.15;;;;;;;;;;5016033;28;20419;-55
2022/05/10 00:47:23;;;;;;;8.85;3.05;;;;;;;;;;5005915;28;20388;-56
2022/05/10 00:50:00;;;;;;;6.78;3.20;;;;;;;;;;5019587;28;20426;-56
2022/05/10 00:52:48;;;;;;;8.57;2.97;;;;;;;;;;5018980;28;20413;-56
2022/05/10 00:55:20;;;;;;;9.65;3.08;;;;;;;;;;5036668;28;20387;-53
2022/05/10 00:57:55;;;;;;;8.93;3.35;;;;;;;;;;5036487;28;20390;-52
2022/05/10 01:00:21;;;;;;;7.03;3.03;;;;;;;;;;5017679;28;20419;-52
2022/05/10 01:02:47;;;;;;;6.10;3.10;;;;;;;;;;5017822;28;20395;-53
2022/05/10 01:05:14;;;;;;;10.32;3.22;;;;;;;;;;5018394;28;20405;-51
2022/05/10 01:07:49;;;;;;;5.97;2.90;;;;;;;;;;5019005;28;20810;-53
2022/05/10 01:10:18;;;;;;;6.82;3.13;;;;;;;;;;5036240;28;20502;-52
2022/05/10 01:13:08;;;;;;;6.37;2.90;;;;;;;;;;5018763;28;20496;-52
2022/05/10 01:15:35;;;;;;;8.15;3.25;;;;;;;;;;5026280;28;20453;-53
2022/05/10 01:18:01;;;;;;;6.50;3.20;;;;;;;;;;5018723;28;20876;-54
2022/05/10 01:20:37;;;;;;;7.47;2.83;;;;;;;;;;5016992;28;20900;-51
2022/05/10 01:23:17;;;;;;;7.53;3.30;;;;;;;;;;5017752;28;20406;-54
2022/05/10 01:25:59;;;;;;;8.30;3.17;;;;;;;;;;5018009;28;20466;-53
2022/05/10 01:28:34;;;;;;;9.07;3.42;;;;;;;;;;5035633;28;20379;-53
2022/05/10 01:31:03;;;;;;;7.25;3.30;;;;;;;;;;5018499;28;20873;-53
2022/05/10 01:33:33;;;;;;;7.22;3.20;;;;;;;;;;5017387;28;20386;-55
2022/05/10 01:36:17;;;;;;;7.10;3.40;;;;;;;;;;5018118;28;20403;-55
2022/05/10 01:38:48;;;;;;;8.90;3.22;;;;;;;;;;5016902;28;20406;-55
2022/05/10 01:41:14;;;;;;;6.70;3.05;;;;;;;;;;5017775;28;20387;-52
2022/05/10 01:43:46;;;;;;;6.93;2.78;;;;;;;;;;5017911;28;20395;-54
2022/05/10 01:46:18;;;;;;;7.57;2.97;;;;;;;;;;5018308;28;20783;-55
2022/05/10 01:48:46;;;;;;;6.85;3.40;;;;;;;;;;5018397;28;20395;-56
2022/05/10 01:51:16;;;;;;;7.25;3.30;;;;;;;;;;5013742;28;20435;-53
2022/05/10 01:53:42;;;;;;;8.55;3.67;;;;;;;;;;5014378;28;20400;-53
2022/05/10 01:56:13;;;;;;;5.75;3.10;;;;;;;;;;5014762;28;20384;-53
2022/05/10 01:58:40;;;;;;;8.70;3.10;;;;;;;;;;5014317;28;20381;-54
2022/05/10 02:01:06;;;;;;;4.80;2.92;;;;;;;;;;5013090;28;20512;-52
2022/05/10 02:03:35;;;;;;;7.15;3.22;;;;;;;;;;5012700;28;20754;-54
2022/05/10 02:06:11;;;;;;;9.02;3.25;;;;;;;;;;5011476;28;20401;-55
2022/05/10 02:08:48;;;;;;;5.28;2.97;;;;;;;;;;5012296;28;20468;-52
2022/05/10 02:11:17;;;;;;;5.90;3.10;;;;;;;;;;5010278;28;20412;-56
2022/05/10 02:13:55;;;;;;;6.82;3.20;;;;;;;;;;5011042;28;20389;-53
2022/05/10 02:16:24;;;;;;;8.30;3.38;;;;;;;;;;5013620;28;20873;-52
2022/05/10 02:18:53;;;;;;;7.78;2.88;;;;;;;;;;5012498;28;20492;-55
2022/05/10 02:21:24;;;;;;;11.65;3.33;;;;;;;;;;5012341;28;20396;-52
2022/05/10 02:23:53;;;;;;;7.75;3.47;;;;;;;;;;5012778;28;20439;-51
2022/05/10 02:26:34;;;;;;;7.30;3.22;;;;;;;;;;5012733;28;20783;-50
2022/05/10 02:29:04;;;;;;;8.87;3.30;;;;;;;;;;5015695;28;20480;-54
2022/05/10 02:33:06;;;;;;;5.88;3.00;;;;;;;;;;5014253;28;20408;-52
2022/05/10 02:34:20;;;;;;;8.07;3.40;;;;;;;;;;5015182;28;20447;-52
2022/05/10 02:36:46;;;;;;;7.78;3.35;;;;;;;;;;5014915;28;20410;-55
2022/05/10 02:39:12;;;;;;;10.77;3.30;;;;;;;;;;5011769;28;20541;-51
2022/05/10 02:41:38;;;;;;;6.38;3.05;;;;;;;;;;5011052;28;20495;-51
2022/05/10 02:44:04;;;;;;;6.05;3.40;;;;;;;;;;5011111;28;20452;-54
2022/05/10 02:46:30;;;;;;;6.45;3.08;;;;;;;;;;5012183;28;20381;-53
2022/05/10 02:48:56;;;;;;;7.65;3.30;;;;;;;;;;5011742;28;20676;-57
2022/05/10 02:51:22;;;;;;;8.52;3.28;;;;;;;;;;5009161;28;20436;-51
2022/05/10 02:53:48;;;;;;;5.75;3.40;;;;;;;;;;5007749;28;20385;-54
2022/05/10 02:56:20;;;;;;;6.65;3.10;;;;;;;;;;5009402;28;20381;-51
2022/05/10 02:59:07;;;;;;;4.97;3.00;;;;;;;;;;5009522;28;20381;-55
2022/05/10 03:01:52;;;;;;;6.53;3.25;;;;;;;;;;5009047;28;20873;-50
2022/05/10 03:04:18;;;;;;;6.15;3.35;;;;;;;;;;5009354;28;20492;-51
2022/05/10 03:06:46;;;;;;;5.10;3.10;;;;;;;;;;5010194;28;20405;-52
2022/05/10 03:09:12;;;;;;;5.75;3.03;;;;;;;;;;5011314;28;20803;-52
2022/05/10 03:11:38;;;;;;;4.15;2.88;;;;;;;;;;5009417;28;20427;-50
2022/05/10 03:14:05;;;;;;;6.05;3.03;;;;;;;;;;5009459;28;20381;-53
2022/05/10 03:16:32;;;;;;;7.32;3.38;;;;;;;;;;5009137;28;20392;-55
2022/05/10 03:18:58;;;;;;;4.43;2.92;;;;;;;;;;5008530;28;20535;-52
2022/05/10 03:21:24;;;;;;;5.38;3.17;;;;;;;;;;5008834;28;20401;-53
2022/05/10 03:23:50;;;;;;;6.38;3.20;;;;;;;;;;5008150;28;20651;-53
2022/05/10 03:26:19;;;;;;;7.82;3.58;;;;;;;;;;5007116;28;20389;-53
2022/05/10 03:28:44;;;;;;;8.93;3.45;;;;;;;;;;5008721;28;20831;-53
2022/05/10 03:31:12;;;;;;;7.28;2.95;;;;;;;;;;5008768;28;20400;-54
2022/05/10 03:33:38;;;;;;;6.60;3.13;;;;;;;;;;5009429;28;20381;-50
2022/05/10 03:36:04;;;;;;;8.18;3.40;;;;;;;;;;5008769;28;20783;-52
2022/05/10 03:38:30;;;;;;;6.60;3.22;;;;;;;;;;5011814;28;20392;-52
2022/05/10 03:40:56;;;;;;;8.05;3.42;;;;;;;;;;5013413;28;20385;-53
2022/05/10 03:43:22;;;;;;;5.72;3.20;;;;;;;;;;5012742;28;20490;-56
2022/05/10 03:45:48;;;;;;;7.50;3.00;;;;;;;;;;5012292;28;20471;-52
2022/05/10 03:48:14;;;;;;;7.97;3.63;;;;;;;;;;5013908;28;20397;-54
2022/05/10 03:50:40;;;;;;;7.07;3.43;;;;;;;;;;5025609;28;20478;-56
2022/05/10 03:56:10;;;;;;;10.07;3.65;;;;;;;;;;5037066;28;20458;-55
2022/05/10 03:58:36;;;;;;;5.78;3.60;;;;;;;;;;5018436;28;20429;-54
2022/05/10 04:01:03;;;;;;;7.82;3.80;;;;;;;;;;5017398;28;20441;-50
2022/05/10 04:03:29;;;;;;;6.18;3.08;;;;;;;;;;5017239;28;20846;-53
2022/05/10 04:05:54;;;;;;;10.32;3.85;;;;;;;;;;5034744;28;20394;-52
2022/05/10 04:08:23;;;;;;;6.15;3.17;;;;;;;;;;5017221;28;20395;-52
2022/05/10 04:10:49;;;;;;;8.55;3.58;;;;;;;;;;5016953;28;20505;-55
2022/05/10 04:13:16;;;;;;;6.47;3.50;;;;;;;;;;5016207;28;20474;-53
2022/05/10 04:15:42;;;;;;;11.75;3.70;;;;;;;;;;5016095;28;20458;-59
2022/05/10 04:18:08;;;;;;;6.60;3.60;;;;;;;;;;5033062;28;20387;-55
2022/05/10 04:20:33;;;;;;;9.03;3.10;;;;;;;;;;5031659;28;20652;-56
2022/05/10 04:23:00;;;;;;;7.47;3.40;;;;;;;;;;5015247;28;20387;-54
2022/05/10 04:25:26;;;;;;;8.63;3.67;;;;;;;;;;5014753;28;20478;-53
2022/05/10 04:27:52;;;;;;;7.30;3.63;;;;;;;;;;5016289;28;20479;-54
2022/05/10 04:30:19;;;;;;;6.20;3.30;;;;;;;;;;5034452;28;20617;-55
2022/05/10 04:32:45;;;;;;;8.03;4.00;;;;;;;;;;5016688;28;20399;-51
2022/05/10 04:35:11;;;;;;;8.97;3.90;;;;;;;;;;5031763;28;20460;-56
2022/05/10 04:37:37;;;;;;;9.07;3.72;;;;;;;;;;5013326;28;20703;-53
2022/05/10 04:42:49;;;;;;;7.53;3.42;;;;;;;;;;5028418;28;20398;-54
2022/05/10 04:45:15;;;;;;;7.22;3.83;;;;;;;;;;5029218;28;20379;-52
2022/05/10 04:47:50;;;;;;;9.60;4.47;;;;;;;;;;5027655;28;20497;-55
2022/05/10 04:50:16;;;;;;;8.70;3.80;;;;;;;;;;5006620;28;20432;-53
2022/05/10 04:52:55;;;;;;;7.15;4.10;;;;;;;;;;5006288;28;20530;-51
2022/05/10 04:55:38;;;;;;;6.63;3.43;;;;;;;;;;5004536;28;20381;-53
2022/05/10 04:58:04;;;;;;;11.55;4.43;;;;;;;;;;5006789;28;20393;-55
2022/05/10 05:00:31;;;;;;;8.97;3.90;;;;;;;;;;5006874;28;20385;-52
2022/05/10 05:03:00;;;;;;;9.50;4.18;;;;;;;;;;5007711;28;20462;-55
2022/05/10 05:05:26;;;;;;;9.23;4.13;;;;;;;;;;5009037;28;20768;-55
2022/05/10 05:07:52;;;;;;;8.35;4.00;;;;;;;;;;5010063;28;20733;-51
2022/05/10 05:10:18;;;;;;;11.50;4.32;;;;;;;;;;5011346;28;20416;-53
2022/05/10 05:12:44;;;;;;;9.85;4.20;;;;;;;;;;5011319;28;20381;-51
2022/05/10 05:15:11;;;;;;;10.38;4.20;;;;;;;;;;5009432;28;20669;-54
2022/05/10 05:17:38;;;;;;;8.38;3.95;;;;;;;;;;5010087;28;20657;-54
2022/05/10 05:20:04;;;;;;;11.38;5.05;;;;;;;;;;5007959;28;20816;-52
2022/05/10 05:22:30;;;;;;;7.05;4.28;;;;;;;;;;5006801;28;20669;-50
2022/05/10 05:25:03;;;;;;;11.77;4.53;;;;;;;;;;5007162;28;20773;-55
2022/05/10 05:27:29;;;;;;;11.77;4.15;;;;;;;;;;5009818;28;20389;-53
2022/05/10 05:29:55;;;;;;;11.65;4.28;;;;;;;;;;5009468;28;20687;-53
2022/05/10 05:32:23;;;;;;;8.18;3.90;;;;;;;;;;5008946;28;20416;-53
2022/05/10 05:34:49;;;;;;;10.73;4.60;;;;;;;;;;5007540;28;20389;-51
2022/05/10 05:37:33;;;;;;;11.10;4.00;;;;;;;;;;5006458;28;20397;-52
2022/05/10 05:39:59;;;;;;;7.35;4.05;;;;;;;;;;5006241;28;20472;-53
2022/05/10 05:42:25;;;;;;;9.50;4.07;;;;;;;;;;5003492;28;20400;-56
2022/05/10 05:44:52;;;;;;;9.10;3.85;;;;;;;;;;5002366;28;20459;-51
2022/05/10 05:47:18;;;;;;;8.00;3.85;;;;;;;;;;5003299;28;20771;-54
2022/05/10 05:49:44;;;;;;;9.45;4.18;;;;;;;;;;5008393;28;20384;-54
2022/05/10 05:52:11;;;;;;;11.25;4.47;;;;;;;;;;5008217;28;20635;-54
2022/05/10 05:54:37;;;;;;;11.50;4.55;;;;;;;;;;5009434;28;20384;-53
2022/05/10 05:57:04;;;;;;;8.43;4.15;;;;;;;;;;5008105;28;20636;-55
2022/05/10 05:59:31;;;;;;;9.95;3.80;;;;;;;;;;5006239;28;20667;-55
2022/05/10 06:01:57;;;;;;;10.52;4.40;;;;;;;;;;5006234;28;20391;-50
2022/05/10 06:04:23;;;;;;;10.45;4.32;;;;;;;;;;5024825;28;20379;-49
2022/05/10 06:06:49;;;;;;;6.27;3.90;;;;;;;;;;5008332;28;20399;-51
2022/05/10 06:09:15;;;;;;;13.47;4.93;;;;;;;;;;5025276;28;20460;-56
2022/05/10 06:11:42;;;;;;;10.88;4.25;;;;;;;;;;5004753;28;20476;-56
2022/05/10 06:14:08;;;;;;;6.80;4.03;;;;;;;;;;5023687;28;20375;-52
2022/05/10 06:16:34;;;;;;;8.65;4.20;;;;;;;;;;5007221;28;20857;-55
2022/05/10 06:19:00;;;;;;;7.05;4.10;;;;;;;;;;5004635;28;20663;-55
2022/05/10 06:21:26;;;;;;;10.10;4.53;;;;;;;;;;5007028;28;20803;-50
2022/05/10 06:23:52;;;;;;;8.50;4.00;;;;;;;;;;5007320;28;20494;-50
2022/05/10 06:26:18;;;;;;;8.02;4.57;;;;;;;;;;5009697;28;20474;-50
2022/05/10 06:28:44;;;;;;;5.93;3.50;;;;;;;;;;5007216;28;20387;-51
2022/05/10 06:31:10;;;;;;;10.38;4.10;;;;;;;;;;5022096;28;20410;-55
2022/05/10 06:36:25;;;;;;;10.15;4.70;;;;;;;;;;5019587;28;20434;-50
2022/05/10 06:38:51;;;;;;;8.13;3.90;;;;;;;;;;5000574;28;20383;-51
2022/05/10 06:41:16;;;;;;;6.88;4.10;;;;;;;;;;5001757;28;20399;-53
2022/05/10 06:43:43;;;;;;;11.55;4.60;;;;;;;;;;5020578;28;20421;-49
2022/05/10 06:46:10;;;;;;;9.55;4.53;;;;;;;;;;5003608;28;20387;-51
2022/05/10 06:48:36;;;;;;;9.35;4.28;;;;;;;;;;5004048;28;20389;-53
2022/05/10 06:51:05;;;;;;;7.75;4.50;;;;;;;;;;5003131;28;20451;-54
2022/05/10 06:53:31;;;;;;;8.77;4.70;;;;;;;;;;5003038;28;20401;-52
2022/05/10 06:55:57;;;;;;;8.95;4.68;;;;;;;;;;5003677;28;20395;-49
2022/05/10 06:58:23;;;;;;;9.10;4.83;;;;;;;;;;5002113;28;20490;-52
2022/05/10 07:00:49;;;;;;;8.53;4.00;;;;;;;;;;5001947;28;20387;-51
2022/05/10 07:03:16;;;;;;;9.03;4.63;;;;;;;;;;5003194;28;20931;-51
2022/05/10 07:05:43;;;;;;;8.48;4.47;;;;;;;;;;5002933;28;20949;-54
2022/05/10 07:08:09;;;;;;;9.02;4.60;;;;;;;;;;5001716;28;20473;-54
2022/05/10 07:10:35;;;;;;;8.30;4.10;;;;;;;;;;5003650;28;20485;-53
2022/05/10 07:13:01;;;;;;;7.38;4.38;;;;;;;;;;5007348;28;20397;-54
2022/05/10 07:15:28;;;;;;;6.82;3.92;;;;;;;;;;5026332;28;20457;-52
2022/05/10 07:17:54;;;;;;;9.52;4.43;;;;;;;;;;5008658;28;20375;-49
2022/05/10 07:20:20;;;;;;;10.40;4.20;;;;;;;;;;5026938;28;20456;-51
2022/05/10 07:22:46;;;;;;;9.95;4.45;;;;;;;;;;5010463;28;20438;-52
2022/05/10 07:25:14;;;;;;;6.90;4.20;;;;;;;;;;5010104;28;20391;-55
2022/05/10 07:27:40;;;;;;;7.07;4.30;;;;;;;;;;5009971;28;20731;-50
2022/05/10 07:30:07;;;;;;;10.05;4.47;;;;;;;;;;5007185;28;20423;-53
2022/05/10 07:32:33;;;;;;;11.40;4.80;;;;;;;;;;5026099;28;20548;-52
2022/05/10 07:35:02;;;;;;;7.20;3.83;;;;;;;;;;5009712;28;20478;-53
2022/05/10 07:37:28;;;;;;;12.63;4.68;;;;;;;;;;5009500;28;20573;-51
2022/05/10 07:39:54;;;;;;;10.00;4.50;;;;;;;;;;5027372;28;20444;-54
2022/05/10 07:42:20;;;;;;;6.53;3.70;;;;;;;;;;5008844;28;20395;-55
2022/05/10 07:44:49;;;;;;;8.10;4.20;;;;;;;;;;5007617;28;20399;-52
2022/05/10 07:47:15;;;;;;;11.00;4.38;;;;;;;;;;5004512;28;20394;-53
2022/05/10 07:49:42;;;;;;;10.30;4.33;;;;;;;;;;5005309;28;20521;-55
2022/05/10 07:52:08;;;;;;;11.40;4.40;;;;;;;;;;5004884;28;20659;-49
2022/05/10 07:54:35;;;;;;;8.37;4.40;;;;;;;;;;5004898;28;20379;-54
2022/05/10 07:57:01;;;;;;;7.70;4.03;;;;;;;;;;5005456;28;20402;-52
2022/05/10 07:59:28;;;;;;;5.53;3.15;;;;;;;;;;5006302;28;20396;-54
2022/05/10 08:01:54;;;;;;;7.60;3.77;;;;;;;;;;5008757;28;20873;-54
2022/05/10 08:04:20;;;;;;;5.90;3.55;;;;;;;;;;5029686;28;20485;-53
2022/05/10 08:06:46;;;;;;;10.05;4.30;;;;;;;;;;5011969;28;20465;-55
2022/05/10 08:09:12;;;;;;;13.82;4.20;;;;;;;;;;5011407;28;20486;-52
2022/05/10 08:11:39;;;;;;;7.60;3.97;;;;;;;;;;5009147;28;20509;-53
2022/05/10 08:14:05;;;;;;;10.02;3.80;;;;;;;;;;5010723;28;20993;-62
2022/05/10 08:16:33;;;;;;;9.18;3.95;;;;;;;;;;5010646;28;20387;-62
2022/05/10 08:18:59;;;;;;;12.07;4.20;;;;;;;;;;5011157;28;20383;-61
2022/05/10 08:21:25;;;;;;;8.60;4.10;;;;;;;;;;5010692;28;20391;-62
2022/05/10 08:23:55;;;;;;;8.70;4.32;;;;;;;;;;5029814;28;20419;-61
2022/05/10 08:26:21;;;;;;;7.63;3.53;;;;;;;;;;5012213;28;20387;-61
2022/05/10 08:28:47;;;;;;;5.15;3.55;;;;;;;;;;5014380;28;20399;-61
2022/05/10 08:31:13;;;;;;;10.98;4.07;;;;;;;;;;5016093;28;20720;-53
2022/05/10 08:33:40;;;;;;;8.52;3.83;;;;;;;;;;5033709;28;20394;-54
2022/05/10 08:36:08;;;;;;;10.63;4.18;;;;;;;;;;5033817;28;20382;-54
2022/05/10 08:38:35;;;;;;;9.10;4.20;;;;;;;;;;5015559;28;20394;-56
2022/05/10 08:41:34;;;;;;;12.13;4.53;;;;;;;;;;5015280;28;20409;-56
2022/05/10 08:44:08;;;;;;;9.32;4.57;;;;;;;;;;4985882;28;20410;-56
2022/05/10 08:46:37;;;;;;;11.65;4.60;;;;;;;;;;5006841;28;20457;-53
2022/05/10 08:49:09;;;;;;;13.40;4.70;;;;;;;;;;5005510;28;20391;-54
2022/05/10 08:51:36;;;;;;;13.15;4.88;;;;;;;;;;5002207;28;20596;-51
2022/05/10 08:54:02;;;;;;;8.88;4.18;;;;;;;;;;5001773;28;20447;-52
2022/05/10 08:56:32;;;;;;;10.63;3.88;;;;;;;;;;5002216;28;20413;-54
2022/05/10 08:59:31;;;;;;;13.95;4.80;;;;;;;;;;5003458;28;20381;-55
2022/05/10 09:02:03;;;;;;;5.55;3.90;;;;;;;;;;4951468;28;20393;-56
2022/05/10 09:04:40;;;;;;;7.38;4.20;;;;;;;;;;5005576;28;20406;-52
2022/05/10 09:07:12;;;;;;;6.97;3.63;;;;;;;;;;5004139;28;20388;-51
2022/05/10 09:09:50;;;;;;;7.75;4.03;;;;;;;;;;5003215;28;20392;-51
2022/05/10 09:12:23;;;;;;;11.93;4.85;;;;;;;;;;5001908;28;20708;-55
2022/05/10 09:14:53;;;;;;;8.23;4.47;;;;;;;;;;5002549;28;20400;-55
2022/05/10 09:17:20;;;;;;;7.40;4.15;;;;;;;;;;5002940;28;20456;-54
2022/05/10 09:19:56;;;;;;;9.80;4.40;;;;;;;;;;5002209;28;20686;-52
2022/05/10 09:22:34;;;;;;;9.00;4.30;;;;;;;;;;5008443;28;20384;-55
2022/05/10 09:25:00;;;;;;;9.37;4.37;;;;;;;;;;5009655;28;20381;-56
2022/05/10 09:30:39;;;;;;;5.25;3.70;;;;;;;;;;5011687;28;20439;-54
2022/05/10 09:36:12;;;;;;;11.25;4.43;;;;;;;;;;5008673;28;20459;-52
2022/05/10 09:38:51;;;;;;;6.50;3.10;;;;;;;;;;5007809;28;20380;-54
2022/05/10 09:41:25;;;;;;;7.47;3.40;;;;;;;;;;5007400;28;21090;-55
2022/05/10 09:43:53;;;;;;;7.85;3.95;;;;;;;;;;5008472;28;20399;-54
2022/05/10 09:46:22;;;;;;;8.57;3.95;;;;;;;;;;5007320;28;20412;-55
2022/05/10 09:48:48;;;;;;;7.80;3.25;;;;;;;;;;5009121;28;20468;-55
2022/05/10 09:51:20;;;;;;;6.47;3.37;;;;;;;;;;5008801;28;20710;-53
2022/05/10 09:53:46;;;;;;;6.57;3.25;;;;;;;;;;5008767;28;20395;-55
2022/05/10 09:56:28;;;;;;;5.90;3.45;;;;;;;;;;5008759;28;20789;-55
2022/05/10 09:59:14;;;;;;;7.40;3.53;;;;;;;;;;5008803;28;20388;-55
2022/05/10 10:01:40;;;;;;;7.40;2.92;;;;;;;;;;4993723;28;20393;-53
2022/05/10 10:04:45;;;;;;;5.68;3.20;;;;;;;;;;5009745;28;20423;-55
2022/05/10 10:07:13;;;;;;;5.65;2.67;;;;;;;;;;5009988;28;20396;-53
2022/05/10 10:09:41;;;;;;;4.50;2.60;;;;;;;;;;5011050;28;20404;-52
2022/05/10 10:15:20;;;;;;;5.40;2.75;;;;;;;;;;5009323;28;20537;-53
2022/05/10 10:17:51;;;;;;;5.80;2.80;;;;;;;;;;5010006;28;20424;-53
2022/05/10 10:20:23;;;;;;;6.53;2.33;;;;;;;;;;5008575;28;20484;-54
2022/05/10 10:22:57;;;;;;;5.30;2.80;;;;;;;;;;5010073;28;20848;-54
2022/05/10 10:25:28;;;;;;;6.68;2.83;;;;;;;;;;5008650;28;20391;-51
2022/05/10 10:28:20;;;;;;;7.55;2.83;;;;;;;;;;5008475;28;20396;-53
2022/05/10 10:30:51;;;;;;;8.02;2.70;;;;;;;;;;5005839;28;20393;-53
2022/05/10 10:33:20;;;;;;;7.28;3.00;;;;;;;;;;5006611;28;20441;-52
2022/05/10 10:35:52;;;;;;;6.22;2.88;;;;;;;;;;5007211;28;20384;-53
2022/05/10 10:38:24;;;;;;;7.63;2.78;;;;;;;;;;5006317;28;20388;-50
2022/05/10 10:40:56;;;;;;;7.35;2.80;;;;;;;;;;5008082;28;20385;-56
2022/05/10 10:43:41;;;;;;;7.35;2.55;;;;;;;;;;5007852;28;20389;-50
2022/05/10 10:46:10;;;;;;;11.88;2.55;;;;;;;;;;5006238;28;20384;-55
2022/05/10 10:48:48;;;;;;;7.55;2.67;;;;;;;;;;5008966;28;20381;-54
2022/05/10 10:51:16;;;;;;;4.28;2.58;;;;;;;;;;5023172;28;20434;-55
2022/05/10 10:53:43;;;;;;;5.22;2.25;;;;;;;;;;5011939;28;20414;-55
2022/05/10 10:56:33;;;;;;;5.03;2.17;;;;;;;;;;5012544;28;20391;-53
2022/05/10 10:59:30;;;;;;;6.25;2.45;;;;;;;;;;5015310;28;20375;-56
2022/05/10 11:01:59;;;;;;;6.30;2.50;;;;;;;;;;5014939;28;20398;-55
2022/05/10 11:04:44;;;;;;;6.15;2.70;;;;;;;;;;5016125;28;20490;-54
2022/05/10 11:07:18;;;;;;;7.15;2.53;;;;;;;;;;5031669;28;20510;-53
2022/05/10 11:09:49;;;;;;;7.72;2.75;;;;;;;;;;5032600;28;20386;-56
2022/05/10 11:12:18;;;;;;;22.75;3.80;;;;;;;;;;5014010;28;20904;-54
2022/05/10 11:14:46;;;;;;;10.57;2.60;;;;;;;;;;5013919;28;20391;-54
2022/05/10 11:17:36;;;;;;;8.20;2.70;;;;;;;;;;5012677;28;20395;-56
2022/05/10 11:20:05;;;;;;;9.48;2.63;;;;;;;;;;5011853;28;20810;-51
2022/05/10 11:22:36;;;;;;;5.90;2.30;;;;;;;;;;5011313;28;20414;-56
2022/05/10 11:25:06;;;;;;;6.38;2.67;;;;;;;;;;5011574;28;20444;-53
2022/05/10 11:27:51;;;;;;;5.13;2.22;;;;;;;;;;5029703;28;20385;-55
2022/05/10 11:30:50;;;;;;;6.68;2.10;;;;;;;;;;5010309;28;20379;-54
2022/05/10 11:33:22;;;;;;;13.98;3.13;;;;;;;;;;4971298;28;20454;-56
2022/05/10 11:35:58;;;;;;;8.93;2.63;;;;;;;;;;4996554;28;20477;-57
2022/05/10 11:38:42;;;;;;;6.53;2.53;;;;;;;;;;5015911;28;20379;-53
2022/05/10 11:41:11;;;;;;;3.80;2.50;;;;;;;;;;4999881;28;20730;-54
2022/05/10 11:43:56;;;;;;;6.82;2.72;;;;;;;;;;5001077;28;20440;-53
2022/05/10 11:46:37;;;;;;;5.78;2.42;;;;;;;;;;5000772;28;20480;-54
2022/05/10 11:49:03;;;;;;;10.88;2.55;;;;;;;;;;4999082;28;20473;-54
2022/05/10 11:51:38;;;;;;;6.47;2.53;;;;;;;;;;5019032;28;20425;-53
2022/05/10 11:54:04;;;;;;;8.05;2.15;;;;;;;;;;5001827;28;20386;-53
2022/05/10 11:56:34;;;;;;;2.63;2.03;;;;;;;;;;5000539;28;20656;-54
2022/05/10 11:59:09;;;;;;;6.00;2.45;;;;;;;;;;5003713;28;20383;-53
2022/05/10 12:01:46;;;;;;;5.27;2.30;;;;;;;;;;5023597;28;20490;-56
2022/05/10 12:04:31;;;;;;;7.22;2.45;;;;;;;;;;5024001;28;20473;-56
2022/05/10 12:07:17;;;;;;;7.80;2.40;;;;;;;;;;5007918;28;20602;-56
2022/05/10 12:09:49;;;;;;;7.32;2.55;;;;;;;;;;5007054;28;20759;-56
2022/05/10 12:12:34;;;;;;;8.10;2.70;;;;;;;;;;5024169;28;20402;-53
2022/05/10 12:21:19;;;;;;;5.75;2.50;;;;;;;;;;5025792;28;20486;-54
2022/05/10 12:24:01;;;;;;;4.28;2.60;;;;;;;;;;5008554;28;20648;-55
2022/05/10 12:26:46;;;;;;;13.13;3.20;;;;;;;;;;5027965;28;20387;-52
2022/05/10 12:29:35;;;;;;;6.78;3.58;;;;;;;;;;5010450;28;20387;-54
2022/05/10 12:32:03;;;;;;;7.40;3.40;;;;;;;;;;4981807;28;20415;-57
2022/05/10 12:34:40;;;;;;;5.47;3.30;;;;;;;;;;5024995;28;20892;-54
2022/05/10 12:37:36;;;;;;;5.80;3.22;;;;;;;;;;5008472;28;20375;-55
2022/05/10 12:40:11;;;;;;;7.93;3.42;;;;;;;;;;5005991;28;20407;-56
2022/05/10 12:42:56;;;;;;;4.78;3.25;;;;;;;;;;5007536;28;20379;-54
2022/05/10 12:45:26;;;;;;;5.45;3.00;;;;;;;;;;5009567;28;20371;-52
2022/05/10 12:50:59;;;;;;;9.55;2.90;;;;;;;;;;5016522;28;20473;-54
2022/05/10 12:53:30;;;;;;;9.93;3.70;;;;;;;;;;5022249;28;20592;-55
2022/05/10 12:56:01;;;;;;;5.07;3.00;;;;;;;;;;5004695;28;20383;-55
2022/05/10 12:58:30;;;;;;;7.93;3.03;;;;;;;;;;5023211;28;20375;-56
2022/05/10 13:00:58;;;;;;;7.03;3.20;;;;;;;;;;5025069;28;20423;-55
2022/05/10 13:03:26;;;;;;;5.90;2.90;;;;;;;;;;5006832;28;20392;-54
2022/05/10 13:06:10;;;;;;;5.70;3.30;;;;;;;;;;5007835;28;20699;-54
2022/05/10 13:08:39;;;;;;;6.37;3.47;;;;;;;;;;5009108;28;20380;-54
2022/05/10 13:11:06;;;;;;;5.27;3.37;;;;;;;;;;5027063;28;20457;-54
2022/05/10 13:13:33;;;;;;;5.53;3.33;;;;;;;;;;5010462;28;20414;-53
2022/05/10 13:15:59;;;;;;;6.50;3.30;;;;;;;;;;5009092;28;20487;-52
2022/05/10 13:18:26;;;;;;;5.57;3.03;;;;;;;;;;5008257;28;20488;-56
2022/05/10 13:20:54;;;;;;;7.05;3.17;;;;;;;;;;5008077;28;20683;-55
2022/05/10 13:23:20;;;;;;;7.07;3.70;;;;;;;;;;5009133;28;20434;-54
2022/05/10 13:25:47;;;;;;;8.68;3.60;;;;;;;;;;5008497;28;20417;-56
2022/05/10 13:28:24;;;;;;;6.90;3.58;;;;;;;;;;5025340;28;20379;-56
2022/05/10 13:30:51;;;;;;;7.10;3.60;;;;;;;;;;5005718;28;20387;-51
2022/05/10 13:33:37;;;;;;;4.90;3.00;;;;;;;;;;5023787;28;20469;-56
2022/05/10 13:36:05;;;;;;;7.13;3.35;;;;;;;;;;5005367;28;20965;-56
2022/05/10 13:38:37;;;;;;;6.83;3.30;;;;;;;;;;5005379;28;20443;-55
2022/05/10 13:41:04;;;;;;;7.30;3.88;;;;;;;;;;5004585;28;20399;-57
2022/05/10 13:43:43;;;;;;;5.83;3.30;;;;;;;;;;5021877;28;20813;-53
2022/05/10 13:46:22;;;;;;;6.25;3.58;;;;;;;;;;5002640;28;20688;-54
2022/05/10 13:48:53;;;;;;;9.00;3.77;;;;;;;;;;5002973;28;20391;-54
2022/05/10 13:51:44;;;;;;;8.27;3.35;;;;;;;;;;5021654;28;20411;-55
2022/05/10 13:54:22;;;;;;;7.80;3.70;;;;;;;;;;5002383;28;20387;-53
2022/05/10 13:56:48;;;;;;;5.27;3.47;;;;;;;;;;5020386;28;20387;-54
2022/05/10 13:59:15;;;;;;;6.72;3.60;;;;;;;;;;5003598;28;20441;-56
2022/05/10 14:01:41;;;;;;;4.07;3.10;;;;;;;;;;5005500;28;20434;-55
2022/05/10 14:04:08;;;;;;;5.00;3.70;;;;;;;;;;5022836;28;20749;-57
2022/05/10 14:06:37;;;;;;;10.63;3.40;;;;;;;;;;5003266;28;20399;-54
2022/05/10 14:09:07;;;;;;;6.82;3.97;;;;;;;;;;5020657;28;20522;-57
2022/05/10 14:11:33;;;;;;;9.98;4.13;;;;;;;;;;5002426;28;20403;-63
2022/05/10 14:14:01;;;;;;;5.72;3.95;;;;;;;;;;5002490;28;20441;-61
2022/05/10 14:16:28;;;;;;;9.00;3.80;;;;;;;;;;5019927;28;20798;-61
2022/05/10 14:18:54;;;;;;;8.75;4.13;;;;;;;;;;5002923;28;20414;-61
2022/05/10 14:21:28;;;;;;;11.20;5.05;;;;;;;;;;5004926;28;20465;-57
2022/05/10 14:23:55;;;;;;;18.33;5.95;;;;;;;;;;5003367;28;20458;-56
2022/05/10 14:26:32;;;;;;;9.27;6.47;;;;;;;;;;5022298;28;20465;-55
2022/05/10 14:29:06;;;;;;;12.73;6.95;;;;;;;;;;5005179;28;20387;-57
2022/05/10 14:31:34;;;;;;;9.48;6.22;;;;;;;;;;5022040;28;20514;-56
2022/05/10 14:34:02;;;;;;;9.95;6.63;;;;;;;;;;5022180;28;20414;-57
2022/05/10 14:36:36;;;;;;;11.00;6.93;;;;;;;;;;5006936;28;20372;-57
2022/05/10 14:39:04;;;;;;;13.03;7.10;;;;;;;;;;5011082;28;20394;-57
2022/05/10 14:41:51;;;;;;;10.63;6.20;;;;;;;;;;5013326;28;20448;-55
2022/05/10 14:44:18;;;;;;;11.80;6.17;;;;;;;;;;5030158;28;20399;-57
2022/05/10 14:46:59;;;;;;;10.13;6.50;;;;;;;;;;5028672;28;20403;-57
2022/05/10 14:49:35;;;;;;;8.13;7.05;;;;;;;;;;5009866;28;20390;-56
2022/05/10 14:52:03;;;;;;;11.40;7.57;;;;;;;;;;5008026;28;20536;-57
2022/05/10 14:54:36;;;;;;;8.70;7.50;;;;;;;;;;5007571;28;20537;-57
2022/05/10 14:57:02;;;;;;;11.23;7.65;;;;;;;;;;5006086;28;20404;-55
2022/05/10 14:59:51;;;;;;;8.60;7.60;;;;;;;;;;5005728;28;20432;-56
2022/05/10 15:02:23;;;;;;;10.00;8.10;;;;;;;;;;5007397;28;20498;-57
2022/05/10 15:04:49;;;;;;;8.80;7.90;;;;;;;;;;5010047;28;20390;-57
2022/05/10 15:07:15;;;;;;;9.50;8.27;;;;;;;;;;5012808;28;20391;-57
2022/05/10 15:09:41;;;;;;;9.13;7.93;;;;;;;;;;5013117;28;20387;-56
2022/05/10 15:14:53;;;;;;;8.97;7.33;;;;;;;;;;5028316;28;20397;-57
2022/05/10 15:17:19;;;;;;;10.45;7.78;;;;;;;;;;5011833;28;20387;-57
2022/05/10 15:20:02;;;;;;;10.00;7.68;;;;;;;;;;5011788;28;20722;-57
2022/05/10 15:22:31;;;;;;;9.05;8.02;;;;;;;;;;5009409;28;20481;-55
2022/05/10 15:25:00;;;;;;;9.02;7.70;;;;;;;;;;5027995;28;20814;-56
2022/05/10 15:27:26;;;;;;;10.30;7.63;;;;;;;;;;5010278;28;20394;-57
2022/05/10 15:29:58;;;;;;;11.57;8.40;;;;;;;;;;5028199;28;20391;-57